Tyne Valley, Canada
Current Conditions -  °F | °C
As of 5:00 AM on Saturday 29 Nov 2014 (Local Time) from CYYG Reporting Station
Snow Showers Snow Showers  
Wind Chill: 19°   Ceiling: 2500
Heat Index: 25°   Visibility: 5mi
Dew Point: 21°   Wind: 5mph
Humidity: 86%   Direction: 290°WNW
Pressure: 30.02"   Gusts: NA
Location:  46.57°N, 63.93°W
Report Text: CYYG 290900Z 29004KT 5SM -SHSN BKN025 OVC140 M04/M06 A3002 RMK SC7AC1 SLP170
Loading
Personal Weather Stations






























Interactive Weather Map New forecast layout! Learn more

10-Day Weather Forecast

Advertisements
Track Severe Weather on mobile